Time;durP1;ratioP1;P1;durP2;ratioP2;P2;SDS_P1;SDS_P2;PMS_P1;PMS_P2;Temp;Humidity;BMP_temperature;BMP_pressure;BME280_temperature;BME280_humidity;BME280_pressure;Samples;Min_cycle;Max_cycle;Signal;HPM_P1;HPM_P2
2022/10/05 00:02:21;;;;;;;8.80;7.38;;;9.20;99.90;;;;;;5112343;28;20320;-71
2022/10/05 00:04:50;;;;;;;9.05;7.05;;;9.20;99.90;;;;;;5111305;28;20034;-71
2022/10/05 00:07:18;;;;;;;11.73;7.95;;;9.10;99.90;;;;;;5111505;28;20054;-72
2022/10/05 00:09:50;;;;;;;12.18;7.63;;;9.10;99.90;;;;;;5111003;28;20035;-72
2022/10/05 00:12:19;;;;;;;11.38;7.43;;;9.10;99.90;;;;;;5105907;28;20035;-71
2022/10/05 00:14:47;;;;;;;12.32;6.97;;;9.10;99.90;;;;;;5111206;28;20051;-72
2022/10/05 00:17:20;;;;;;;9.77;6.35;;;9.10;99.90;;;;;;5114727;27;20031;-72
2022/10/05 00:19:50;;;;;;;12.40;7.30;;;9.10;99.90;;;;;;5111095;28;20032;-70
2022/10/05 00:22:20;;;;;;;;;;;9.00;99.90;;;;;;5111770;28;20541;-71
2022/10/05 00:24:49;;;;;;;12.15;6.80;;;9.00;99.90;;;;;;5111444;28;20409;-71
2022/10/05 00:27:36;;;;;;;9.68;6.28;;;9.00;99.90;;;;;;5111115;28;20050;-72
2022/10/05 00:30:17;;;;;;;7.95;6.80;;;9.00;99.90;;;;;;5093363;28;20059;-71
2022/10/05 00:32:43;;;;;;;7.50;6.28;;;8.90;99.90;;;;;;5111940;27;20107;-72
2022/10/05 00:35:11;;;;;;;11.57;7.47;;;8.90;99.90;;;;;;5101673;28;20108;-71
2022/10/05 00:37:37;;;;;;;7.97;6.82;;;8.90;99.90;;;;;;5111632;28;20063;-71
2022/10/05 00:40:25;;;;;;;9.10;6.28;;;8.80;99.90;;;;;;5109966;28;20085;-72
2022/10/05 00:43:17;;;;;;;12.05;8.10;;;8.80;99.90;;;;;;5110766;28;20044;-69
2022/10/05 00:45:58;;;;;;;9.23;7.03;;;8.80;99.90;;;;;;5095497;28;20574;-71
2022/10/05 00:48:31;;;;;;;13.82;8.38;;;8.80;99.90;;;;;;5089399;28;20051;-71
2022/10/05 00:51:14;;;;;;;10.68;7.53;;;8.80;99.90;;;;;;5108393;28;20483;-71
2022/10/05 00:53:58;;;;;;;8.48;7.40;;;8.80;99.90;;;;;;5112011;28;20035;-71
2022/10/05 00:56:30;;;;;;;7.55;6.70;;;8.80;99.90;;;;;;5102491;28;20027;-71
2022/10/05 00:59:22;;;;;;;10.95;7.35;;;8.80;99.90;;;;;;5108913;28;20480;-71
2022/10/05 01:02:12;;;;;;;9.52;7.10;;;8.80;99.90;;;;;;5116011;28;20476;-71
2022/10/05 01:04:55;;;;;;;10.37;6.93;;;8.80;99.90;;;;;;5098230;28;20031;-71
2022/10/05 01:07:38;;;;;;;8.80;6.90;;;8.70;99.90;;;;;;5108325;28;20055;-71
2022/10/05 01:10:38;;;;;;;9.88;7.70;;;8.80;99.90;;;;;;5107326;28;20058;-71
2022/10/05 01:13:39;;;;;;;9.87;7.70;;;8.70;99.90;;;;;;5085732;28;20047;-71
2022/10/05 01:16:17;;;;;;;9.43;7.18;;;8.70;99.90;;;;;;5107942;28;20032;-72
2022/10/05 01:19:00;;;;;;;10.73;7.57;;;8.60;99.90;;;;;;5107324;28;20422;-72
2022/10/05 01:21:27;;;;;;;13.20;7.85;;;8.60;99.90;;;;;;5110081;28;20426;-72
2022/10/05 01:24:11;;;;;;;13.60;8.70;;;8.60;99.90;;;;;;5108706;28;20028;-69
2022/10/05 01:27:17;;;;;;;10.00;7.70;;;8.60;99.90;;;;;;5106488;28;20016;-71
2022/10/05 01:29:58;;;;;;;8.10;7.10;;;8.60;99.90;;;;;;5107738;28;20057;-71
2022/10/05 01:32:38;;;;;;;9.80;8.05;;;8.50;99.90;;;;;;5098783;28;20078;-71
2022/10/05 01:35:17;;;;;;;11.95;9.40;;;8.50;99.90;;;;;;5105940;28;20024;-71
2022/10/05 01:38:05;;;;;;;10.85;8.00;;;8.50;99.90;;;;;;5110608;28;20027;-71
2022/10/05 01:40:59;;;;;;;12.65;7.75;;;8.50;99.90;;;;;;5097703;28;20038;-71
2022/10/05 01:43:40;;;;;;;9.88;7.68;;;8.40;99.90;;;;;;5108909;28;20034;-71
2022/10/05 01:46:25;;;;;;;13.48;8.48;;;8.30;99.90;;;;;;5097530;28;20154;-71
2022/10/05 01:49:28;;;;;;;12.38;8.93;;;8.40;99.90;;;;;;5078185;28;20513;-69
2022/10/05 01:52:01;;;;;;;9.27;7.95;;;8.30;99.90;;;;;;5107960;28;20024;-69
2022/10/05 01:54:52;;;;;;;10.80;8.10;;;8.30;99.90;;;;;;5107942;28;20072;-74
2022/10/05 01:57:42;;;;;;;12.02;8.05;;;8.20;99.90;;;;;;5107698;28;20034;-71
2022/10/05 02:00:10;;;;;;;12.43;8.70;;;;;;;;;;5113099;28;20031;-73
2022/10/05 02:02:39;;;;;;;12.25;8.25;;;;;;;;;;5113334;28;20026;-72
2022/10/05 02:05:08;;;;;;;11.65;9.18;;;;;;;;;;5112696;28;20363;-72
2022/10/05 02:07:38;;;;;;;12.57;8.80;;;;;;;;;;5112513;28;20022;-72
2022/10/05 02:10:07;;;;;;;12.90;8.48;;;;;;;;;;5112918;28;20035;-71
2022/10/05 02:12:35;;;;;;;11.68;8.98;;;;;;;;;;5113152;28;20031;-71
2022/10/05 02:15:10;;;;;;;10.07;8.50;;;;;;;;;;5092265;28;20023;-71
2022/10/05 02:17:43;;;;;;;11.15;8.63;;;;;;;;;;5108194;28;20035;-71
2022/10/05 02:20:11;;;;;;;11.07;8.65;;;;;;;;;;5109793;28;20464;-72
2022/10/05 02:22:47;;;;;;;11.68;8.65;;;;;;;;;;5112706;28;20032;-71
2022/10/05 02:25:19;;;;;;;12.00;9.32;;;;;;;;;;5108672;28;20706;-71
2022/10/05 02:27:51;;;;;;;11.85;9.20;;;;;;;;;;5113232;28;20023;-70
2022/10/05 02:30:17;;;;;;;15.13;9.82;;;;;;;;;;5112109;28;20160;-72
2022/10/05 02:32:50;;;;;;;15.20;10.23;;;;;;;;;;5113949;28;20027;-71
2022/10/05 02:35:17;;;;;;;14.40;9.75;;;;;;;;;;5110717;28;20024;-71
2022/10/05 02:37:46;;;;;;;14.82;10.23;;;;;;;;;;5110881;28;20027;-71
2022/10/05 02:40:38;;;;;;;11.70;9.40;;;;;;;;;;5108553;28;20027;-71
2022/10/05 02:43:13;;;;;;;14.52;9.57;;;;;;;;;;5107804;28;20058;-71
2022/10/05 02:45:39;;;;;;;16.05;10.93;;;;;;;;;;5100067;28;20028;-71
2022/10/05 02:48:08;;;;;;;17.70;11.23;;;;;;;;;;5109492;28;20063;-71
2022/10/05 02:50:41;;;;;;;14.98;10.10;;;;;;;;;;5111626;28;20613;-71
2022/10/05 02:53:21;;;;;;;15.43;9.90;;;;;;;;;;5108866;28;20064;-71
2022/10/05 02:55:49;;;;;;;11.65;9.75;;;;;;;;;;5118383;27;20548;-70
2022/10/05 02:58:18;;;;;;;13.18;9.23;;;;;;;;;;5112156;28;20086;-72
2022/10/05 03:00:58;;;;;;;16.08;10.75;;;;;;;;;;5107536;28;20024;-72
2022/10/05 03:03:39;;;;;;;15.18;10.40;;;;;;;;;;5106944;28;20106;-73
2022/10/05 03:06:10;;;;;;;12.02;9.40;;;;;;;;;;5110672;28;20036;-71
2022/10/05 03:08:57;;;;;;;13.93;10.43;;;;;;;;;;5108824;28;20032;-71
2022/10/05 03:11:29;;;;;;;15.10;11.45;;;;;;;;;;5101092;27;20028;-72
2022/10/05 03:14:21;;;;;;;14.68;11.20;;;;;;;;;;5107114;28;20012;-71
2022/10/05 03:16:59;;;;;;;12.18;10.30;;;;;;;;;;5088787;28;20047;-72
2022/10/05 03:19:41;;;;;;;13.05;10.40;;;;;;;;;;5108776;28;20026;-69
2022/10/05 03:22:33;;;;;;;15.93;10.93;;;;;;;;;;5114699;28;20098;-72
2022/10/05 03:25:05;;;;;;;16.55;11.23;;;;;;;;;;5110903;28;20135;-71
2022/10/05 03:27:38;;;;;;;14.10;10.68;;;;;;;;;;5112849;28;20028;-72
2022/10/05 03:30:36;;;;;;;12.98;10.45;;;7.90;99.90;;;;;;5111750;28;20539;-72
2022/10/05 03:33:04;;;;;;;17.27;10.95;;;7.80;99.90;;;;;;5107027;28;20035;-70
2022/10/05 03:35:58;;;;;;;13.80;10.90;;;7.80;99.90;;;;;;5111737;28;20075;-71
2022/10/05 03:38:58;;;;;;;13.95;10.50;;;7.70;99.90;;;;;;5109563;28;20047;-71
2022/10/05 03:41:49;;;;;;;13.60;10.80;;;7.70;99.90;;;;;;5051921;28;20174;-72
2022/10/05 03:44:39;;;;;;;13.60;10.45;;;7.60;99.90;;;;;;5102692;28;20133;-70
2022/10/05 03:47:13;;;;;;;12.48;9.52;;;7.60;99.90;;;;;;5100968;28;20080;-71
2022/10/05 03:50:14;;;;;;;16.27;10.85;;;7.60;99.90;;;;;;5109940;28;20036;-71
2022/10/05 03:53:00;;;;;;;15.73;11.48;;;7.60;99.90;;;;;;5029396;28;20033;-69
2022/10/05 03:55:36;;;;;;;16.15;11.80;;;7.60;99.90;;;;;;5105016;28;20099;-71
2022/10/05 03:58:27;;;;;;;17.55;12.10;;;7.60;99.90;;;;;;5109673;28;20032;-72
2022/10/05 04:00:58;;;;;;;16.40;12.82;;;7.60;99.90;;;;;;5062418;28;20044;-68
2022/10/05 04:03:35;;;;;;;18.85;13.18;;;7.70;99.90;;;;;;5107594;28;20368;-71
2022/10/05 04:06:15;;;;;;;21.20;13.45;;;7.70;99.90;;;;;;5109005;28;20020;-72
2022/10/05 04:08:46;;;;;;;18.58;13.80;;;7.80;99.90;;;;;;5109718;28;20150;-71
2022/10/05 04:11:19;;;;;;;20.10;13.60;;;7.80;99.90;;;;;;5104577;28;20024;-71
2022/10/05 04:14:09;;;;;;;17.67;12.32;;;7.80;99.90;;;;;;5108019;27;20391;-71
2022/10/05 04:16:42;;;;;;;15.38;10.85;;;7.80;99.90;;;;;;5109603;28;20034;-69
2022/10/05 04:19:14;;;;;;;18.58;13.15;;;7.70;99.90;;;;;;5116095;27;20638;-72
2022/10/05 04:22:11;;;;;;;16.55;12.07;;;7.70;99.90;;;;;;5109229;28;20031;-69
2022/10/05 04:25:00;;;;;;;17.15;12.05;;;7.60;99.90;;;;;;5100034;28;20059;-70
2022/10/05 04:27:49;;;;;;;18.45;12.55;;;7.60;99.90;;;;;;5104718;28;20031;-70
2022/10/05 04:30:21;;;;;;;16.17;12.17;;;7.60;99.90;;;;;;5107712;28;20032;-71
2022/10/05 04:32:54;;;;;;;16.65;12.75;;;7.50;99.90;;;;;;5111416;28;20027;-71
2022/10/05 04:35:39;;;;;;;19.80;14.18;;;7.50;99.90;;;;;;5109484;28;20031;-71
2022/10/05 04:38:22;;;;;;;21.08;14.45;;;7.40;99.90;;;;;;5108871;28;20037;-71
2022/10/05 04:41:12;;;;;;;24.77;16.73;;;7.40;99.90;;;;;;5111242;28;20465;-72
2022/10/05 04:43:52;;;;;;;25.58;17.27;;;7.40;99.90;;;;;;5106439;28;20072;-72
2022/10/05 04:46:42;;;;;;;25.25;16.15;;;7.50;99.90;;;;;;5094504;28;20032;-71
2022/10/05 04:49:38;;;;;;;24.98;16.65;;;7.40;99.90;;;;;;5110970;27;20059;-72
2022/10/05 04:52:13;;;;;;;24.08;16.25;;;7.40;99.90;;;;;;5109809;28;20024;-73
2022/10/05 04:54:42;;;;;;;21.42;15.20;;;7.50;99.90;;;;;;5091988;28;20553;-72
2022/10/05 04:57:23;;;;;;;23.60;16.27;;;7.50;99.90;;;;;;5116744;28;20089;-76
2022/10/05 04:59:58;;;;;;;23.20;15.52;;;7.40;99.90;;;;;;5110059;28;20089;-74
2022/10/05 05:03:01;;;;;;;23.08;16.35;;;7.50;99.90;;;;;;5111229;28;20024;-75
2022/10/05 05:05:51;;;;;;;23.95;15.52;;;7.50;99.90;;;;;;5108339;28;20027;-75
2022/10/05 05:08:46;;;;;;;24.48;16.27;;;7.60;99.90;;;;;;5102041;28;20495;-74
2022/10/05 05:11:33;;;;;;;19.27;14.60;;;7.60;99.90;;;;;;5102171;28;20575;-76
2022/10/05 05:14:11;;;;;;;20.88;13.98;;;7.60;99.90;;;;;;5107833;28;20404;-76
2022/10/05 05:16:46;;;;;;;23.85;14.77;;;7.60;99.90;;;;;;5109652;28;20032;-76
2022/10/05 05:19:30;;;;;;;26.17;16.52;;;7.50;99.90;;;;;;5102402;28;20629;-71
2022/10/05 05:21:59;;;;;;;23.05;16.33;;;7.60;99.90;;;;;;5109826;28;20419;-71
2022/10/05 05:24:43;;;;;;;22.15;15.75;;;7.60;99.90;;;;;;5109821;28;20062;-71
2022/10/05 05:27:35;;;;;;;22.17;15.65;;;7.50;99.90;;;;;;5108611;28;20562;-71
2022/10/05 05:30:04;;;;;;;24.15;15.60;;;7.50;99.90;;;;;;5107809;28;20050;-72
2022/10/05 05:32:57;;;;;;;25.38;17.13;;;7.40;99.90;;;;;;5115093;28;20182;-70
2022/10/05 05:35:57;;;;;;;25.67;16.73;;;7.50;99.90;;;;;;5113127;28;20062;-70
2022/10/05 05:38:51;;;;;;;23.25;16.27;;;7.40;99.90;;;;;;5066567;28;20047;-70
2022/10/05 05:41:33;;;;;;;23.45;15.75;;;7.40;99.90;;;;;;5111090;28;20077;-69
2022/10/05 05:44:09;;;;;;;22.13;16.30;;;7.40;99.90;;;;;;5112783;28;20024;-72
2022/10/05 05:46:38;;;;;;;25.10;17.08;;;7.40;99.90;;;;;;5102121;28;20077;-71
2022/10/05 05:49:25;;;;;;;24.83;17.02;;;7.30;99.90;;;;;;5112429;28;20079;-70
2022/10/05 05:51:57;;;;;;;29.73;16.63;;;7.30;99.90;;;;;;5111839;28;20073;-71
2022/10/05 05:54:32;;;;;;;24.75;16.05;;;7.30;99.90;;;;;;5112687;28;20407;-70
2022/10/05 05:57:24;;;;;;;23.98;15.65;;;7.30;99.90;;;;;;5119455;27;20027;-72
2022/10/05 06:00:12;;;;;;;29.13;18.77;;;7.30;99.90;;;;;;5109016;28;20097;-71
2022/10/05 06:03:05;;;;;;;29.85;17.98;;;7.30;99.90;;;;;;5099154;28;20031;-71
2022/10/05 06:06:15;;;;;;;24.38;16.70;;;7.30;99.90;;;;;;5110409;28;20028;-70
2022/10/05 06:08:46;;;;;;;29.70;17.67;;;7.30;99.90;;;;;;5063852;28;20090;-71
2022/10/05 06:11:21;;;;;;;27.92;17.45;;;7.40;99.90;;;;;;5100614;27;20024;-71
2022/10/05 06:13:48;;;;;;;24.90;16.92;;;7.40;99.90;;;;;;5109891;28;20354;-71
2022/10/05 06:16:44;;;;;;;25.10;16.05;;;7.50;99.90;;;;;;5109493;28;20528;-71
2022/10/05 06:19:20;;;;;;;23.83;17.33;;;7.60;99.90;;;;;;5088866;28;20121;-71
2022/10/05 06:21:51;;;;;;;24.38;16.92;;;7.70;99.90;;;;;;5108186;28;20076;-69
2022/10/05 06:24:31;;;;;;;24.08;17.38;;;7.80;99.90;;;;;;5100493;28;20024;-70
2022/10/05 06:27:24;;;;;;;24.08;16.63;;;7.90;99.90;;;;;;5106652;28;20462;-72
2022/10/05 06:29:57;;;;;;;22.67;17.05;;;8.00;99.90;;;;;;5110809;28;20465;-68
2022/10/05 06:32:28;;;;;;;19.95;16.40;;;8.10;99.90;;;;;;5111670;28;20024;-70
2022/10/05 06:35:11;;;;;;;23.95;16.88;;;8.20;99.90;;;;;;5108612;28;20093;-68
2022/10/05 06:38:04;;;;;;;21.08;15.63;;;8.30;99.90;;;;;;5105035;28;20161;-70
2022/10/05 06:40:45;;;;;;;20.70;14.75;;;8.40;99.90;;;;;;5103635;28;20031;-70
2022/10/05 06:43:28;;;;;;;23.48;17.73;;;8.50;99.90;;;;;;5108992;28;20207;-69
2022/10/05 06:46:21;;;;;;;27.27;16.90;;;8.60;99.90;;;;;;5110445;28;20019;-69
2022/10/05 06:49:17;;;;;;;20.23;14.73;;;8.70;99.90;;;;;;5094597;28;20119;-70
2022/10/05 06:51:54;;;;;;;21.67;15.02;;;8.80;99.90;;;;;;5086719;28;20032;-70
2022/10/05 06:54:42;;;;;;;18.30;12.65;;;9.00;99.90;;;;;;5088711;28;20064;-70
2022/10/05 06:57:26;;;;;;;14.15;12.13;;;9.00;99.90;;;;;;5083625;28;20028;-71
2022/10/05 07:00:03;;;;;;;17.13;12.80;;;9.10;99.90;;;;;;5087407;28;20083;-68
2022/10/05 07:02:35;;;;;;;18.15;12.50;;;9.30;99.90;;;;;;5091120;28;20031;-71
2022/10/05 07:05:09;;;;;;;16.70;12.68;;;9.40;99.90;;;;;;5088113;28;20028;-69
2022/10/05 07:07:51;;;;;;;14.40;11.50;;;9.50;99.90;;;;;;5087306;28;20028;-70
2022/10/05 07:10:31;;;;;;;19.40;11.75;;;9.60;99.90;;;;;;5088471;28;20108;-69
2022/10/05 07:13:03;;;;;;;;;;;9.80;99.90;;;;;;5087868;28;20024;-69
2022/10/05 07:15:42;;;;;;;15.10;11.27;;;9.80;99.90;;;;;;5084615;28;19962;-70
2022/10/05 07:18:33;;;;;;;13.80;10.40;;;9.90;99.90;;;;;;5089444;28;20032;-69
2022/10/05 07:21:26;;;;;;;18.02;9.77;;;10.10;99.90;;;;;;5086010;28;20111;-70
2022/10/05 07:23:51;;;;;;;18.73;11.50;;;10.20;99.90;;;;;;5086723;28;20039;-68
2022/10/05 07:26:24;;;;;;;14.63;10.93;;;10.30;99.90;;;;;;5086584;28;20024;-70
2022/10/05 07:29:05;;;;;;;12.75;9.90;;;10.40;99.90;;;;;;5087917;28;20082;-68
2022/10/05 07:31:52;;;;;;;17.38;9.05;;;10.50;99.90;;;;;;5088909;28;20021;-70
2022/10/05 07:34:39;;;;;;;14.68;9.30;;;10.60;99.90;;;;;;5087097;28;20043;-70
2022/10/05 07:40:13;;;;;;;15.70;9.48;;;10.90;99.90;;;;;;5086806;28;20094;-69
2022/10/05 07:43:18;;;;;;;12.57;10.18;;;11.00;99.90;;;;;;5088476;28;20017;-69
2022/10/05 07:45:55;;;;;;;13.20;9.95;;;11.10;99.90;;;;;;5087369;28;20016;-70
2022/10/05 07:48:32;;;;;;;10.38;8.10;;;11.20;99.90;;;;;;5098504;28;20043;-70
2022/10/05 07:51:04;;;;;;;12.35;8.02;;;11.40;99.90;;;;;;5101447;28;20030;-69
2022/10/05 07:53:54;;;;;;;13.10;7.88;;;11.40;99.90;;;;;;5105575;28;20439;-70
2022/10/05 07:56:27;;;;;;;9.90;7.47;;;11.50;99.90;;;;;;5067256;28;20361;-71
2022/10/05 07:59:00;;;;;;;12.27;7.65;;;11.50;99.90;;;;;;5105467;28;20389;-68
2022/10/05 08:01:31;;;;;;;9.88;7.30;;;11.70;99.90;;;;;;5105255;28;20019;-72
2022/10/05 08:04:11;;;;;;;10.50;6.82;;;11.80;99.90;;;;;;5106414;28;20016;-71
2022/10/05 08:07:04;;;;;;;13.70;7.15;;;11.90;99.90;;;;;;5107787;28;20068;-72
2022/10/05 08:09:41;;;;;;;9.70;7.20;;;12.10;99.90;;;;;;5109149;27;20044;-72
2022/10/05 08:12:31;;;;;;;12.32;6.93;;;12.20;99.90;;;;;;5104824;28;20027;-71
2022/10/05 08:15:05;;;;;;;13.00;7.03;;;12.20;99.90;;;;;;5105946;28;20097;-70
2022/10/05 08:17:42;;;;;;;12.27;7.68;;;12.20;99.90;;;;;;5106725;28;20098;-71
2022/10/05 08:20:30;;;;;;;14.30;6.80;;;12.30;99.90;;;;;;5103703;28;20031;-71
2022/10/05 08:23:23;;;;;;;8.63;7.05;;;12.40;99.90;;;;;;5100113;28;20030;-71
2022/10/05 08:25:54;;;;;;;10.18;7.45;;;12.60;99.90;;;;;;5102872;28;20031;-69
2022/10/05 08:28:22;;;;;;;10.60;7.10;;;12.70;99.90;;;;;;5108543;28;20032;-70
2022/10/05 08:31:03;;;;;;;11.82;7.60;;;12.80;99.90;;;;;;5104226;28;20069;-70
2022/10/05 08:33:38;;;;;;;10.55;7.72;;;12.80;99.90;;;;;;5103889;28;20529;-69
2022/10/05 08:36:13;;;;;;;11.90;7.93;;;12.90;99.90;;;;;;5108490;28;20074;-69
2022/10/05 08:38:40;;;;;;;13.35;7.82;;;12.90;99.90;;;;;;5102150;28;20488;-69
2022/10/05 08:41:43;;;;;;;8.82;7.47;;;13.10;99.90;;;;;;5098776;28;20110;-69
2022/10/05 08:44:50;;;;;;;10.85;7.80;;;13.10;99.90;;;;;;5105234;28;20118;-69
2022/10/05 08:47:42;;;;;;;10.43;7.55;;;13.20;99.90;;;;;;5080601;27;20357;-68
2022/10/05 08:50:24;;;;;;;11.88;7.50;;;13.40;99.90;;;;;;5045004;28;20056;-69
2022/10/05 08:53:27;;;;;;;12.13;7.75;;;13.40;99.90;;;;;;5089051;28;20028;-67
2022/10/05 08:56:30;;;;;;;10.95;6.88;;;13.60;99.90;;;;;;5086347;28;20060;-68
2022/10/05 08:59:50;;;;;;;11.95;7.18;;;13.80;99.90;;;;;;5084996;28;20032;-69
2022/10/05 09:02:34;;;;;;;10.10;7.20;;;13.80;99.90;;;;;;5009006;28;20041;-69
2022/10/05 09:05:18;;;;;;;12.60;6.78;;;13.90;99.90;;;;;;5087215;28;20436;-70
2022/10/05 09:07:46;;;;;;;13.85;7.07;;;14.10;99.90;;;;;;5089232;28;20072;-70
2022/10/05 09:10:50;;;;;;;11.57;7.20;;;14.10;99.90;;;;;;5087960;28;20028;-70
2022/10/05 09:13:43;;;;;;;11.93;6.78;;;14.30;99.90;;;;;;5037267;28;20028;-70
2022/10/05 09:16:42;;;;;;;8.82;6.70;;;14.40;99.90;;;;;;5090828;28;20028;-68
2022/10/05 09:19:31;;;;;;;10.65;6.50;;;14.50;99.90;;;;;;5089106;28;20089;-70
2022/10/05 09:22:31;;;;;;;11.77;7.07;;;14.60;99.90;;;;;;5088552;28;20030;-69
2022/10/05 09:24:57;;;;;;;;;;;;;;;;;;5071320;28;20062;-69
2022/10/05 09:27:36;;;;;;;10.50;6.90;;;15.20;99.90;;;;;;5086253;28;20391;-69
2022/10/05 09:30:17;;;;;;;14.03;6.03;;;15.20;99.90;;;;;;5085782;28;20040;-70
2022/10/05 09:33:01;;;;;;;;;;;15.20;99.90;;;;;;5094139;28;20027;-69
2022/10/05 09:35:35;;;;;;;13.18;6.50;;;15.30;99.90;;;;;;5085629;28;20357;-68
2022/10/05 09:38:19;;;;;;;12.80;6.70;;;15.50;99.90;;;;;;5081930;28;20031;-70
2022/10/05 09:41:27;;;;;;;8.50;5.90;;;15.70;99.90;;;;;;5087522;28;20027;-69
2022/10/05 09:44:07;;;;;;;7.95;5.88;;;15.90;99.90;;;;;;5087089;28;20020;-68
2022/10/05 09:46:44;;;;;;;9.50;5.32;;;16.10;99.90;;;;;;5081924;28;20431;-70
2022/10/05 09:49:44;;;;;;;7.95;5.90;;;16.20;99.90;;;;;;5105232;28;20082;-70
2022/10/05 09:52:15;;;;;;;10.02;5.60;;;16.40;99.90;;;;;;5111112;28;20028;-69
2022/10/05 09:55:00;;;;;;;6.30;4.68;;;16.40;99.90;;;;;;5098152;28;20089;-69
2022/10/05 09:57:29;;;;;;;10.38;5.57;;;16.70;99.90;;;;;;5103584;28;20027;-70
2022/10/05 10:00:34;;;;;;;9.88;4.93;;;16.90;99.90;;;;;;5105341;28;20024;-69
2022/10/05 10:03:47;;;;;;;6.43;4.45;;;17.00;99.90;;;;;;5105988;28;20462;-70
2022/10/05 10:06:40;;;;;;;10.65;5.13;;;17.20;99.90;;;;;;5068994;28;20094;-72
2022/10/05 10:09:30;;;;;;;9.35;4.80;;;17.40;99.90;;;;;;5064805;28;20086;-70
2022/10/05 10:12:32;;;;;;;8.15;4.80;;;17.70;99.90;;;;;;5064724;28;20119;-71
2022/10/05 10:15:23;;;;;;;8.27;4.05;;;17.90;99.90;;;;;;5039616;28;20083;-70
2022/10/05 10:18:19;;;;;;;5.20;4.03;;;18.20;99.90;;;;;;5060581;28;20036;-70
2022/10/05 10:21:21;;;;;;;8.43;4.68;;;18.40;99.90;;;;;;5063852;28;20029;-71
2022/10/05 10:24:08;;;;;;;9.90;4.50;;;18.70;99.90;;;;;;5054485;28;20039;-71
2022/10/05 10:27:01;;;;;;;9.52;3.65;;;18.80;99.90;;;;;;5067710;28;20036;-71
2022/10/05 10:29:41;;;;;;;7.10;3.67;;;19.00;99.90;;;;;;5070048;28;20043;-71
2022/10/05 10:32:38;;;;;;;4.43;3.28;;;19.20;99.90;;;;;;5069422;28;20101;-70
2022/10/05 10:35:41;;;;;;;7.63;3.92;;;19.40;99.90;;;;;;5066726;28;20078;-70
2022/10/05 10:38:32;;;;;;;5.32;3.33;;;19.60;99.90;;;;;;5109969;28;20050;-71
2022/10/05 10:41:13;;;;;;;6.05;3.10;;;19.90;99.90;;;;;;5107801;28;20365;-69
2022/10/05 10:44:01;;;;;;;3.67;3.17;;;20.10;99.90;;;;;;5091466;28;20536;-69
2022/10/05 10:47:11;;;;;;;4.63;2.50;;;20.30;99.90;;;;;;5108080;28;20476;-70
2022/10/05 10:50:14;;;;;;;3.85;2.00;;;20.40;99.90;;;;;;5046567;28;20513;-69
2022/10/05 10:53:08;;;;;;;1.65;1.23;;;20.70;99.90;;;;;;5111026;27;20037;-70
2022/10/05 10:56:04;;;;;;;2.40;1.38;;;21.00;99.90;;;;;;5107903;28;20024;-70
2022/10/05 10:58:48;;;;;;;2.40;1.10;;;21.30;99.90;;;;;;5099841;28;20039;-71
2022/10/05 11:01:28;;;;;;;1.65;1.30;;;21.60;99.90;;;;;;5110390;28;20107;-70
2022/10/05 11:04:21;;;;;;;4.63;1.70;;;21.80;99.90;;;;;;5109072;28;20028;-67
2022/10/05 11:06:49;;;;;;;2.67;1.35;;;22.00;99.90;;;;;;5103037;28;20020;-69
2022/10/05 11:09:49;;;;;;;2.67;1.40;;;22.20;99.90;;;;;;5106080;28;20111;-69
2022/10/05 11:12:58;;;;;;;2.50;1.30;;;22.40;99.90;;;;;;5099665;28;20066;-69
2022/10/05 11:15:46;;;;;;;1.47;1.17;;;22.60;99.90;;;;;;5107605;28;20433;-69
2022/10/05 11:18:14;;;;;;;1.35;1.20;;;22.70;99.90;;;;;;5106687;28;20023;-69
2022/10/05 11:21:08;;;;;;;2.60;1.20;;;22.80;99.90;;;;;;5098667;28;20065;-69
2022/10/05 11:24:11;;;;;;;1.42;1.33;;;22.90;99.80;;;;;;5106625;28;20094;-69
2022/10/05 11:26:40;;;;;;;2.10;1.20;;;23.00;99.40;;;;;;5106027;28;20063;-68
2022/10/05 11:29:37;;;;;;;1.55;1.45;;;23.00;99.40;;;;;;5102287;28;20032;-72
2022/10/05 11:32:31;;;;;;;4.10;1.92;;;23.20;99.10;;;;;;5066501;28;20075;-68
2022/10/05 11:35:16;;;;;;;5.38;1.77;;;;;;;;;;5108313;28;20077;-69
2022/10/05 11:38:00;;;;;;;1.55;1.33;;;;;;;;;;5098647;28;20028;-70
2022/10/05 11:40:41;;;;;;;2.63;1.55;;;23.90;97.90;;;;;;5098041;28;20039;-70
2022/10/05 11:43:43;;;;;;;3.42;1.40;;;24.00;97.80;;;;;;5104852;28;20385;-71
2022/10/05 11:46:36;;;;;;;3.53;1.42;;;24.20;97.50;;;;;;5106903;28;20024;-71
2022/10/05 11:49:43;;;;;;;1.55;1.42;;;24.60;97.40;;;;;;5104190;28;20131;-71
2022/10/05 11:52:20;;;;;;;4.55;1.40;;;25.00;96.60;;;;;;5036415;28;20034;-73
2022/10/05 11:54:59;;;;;;;2.88;1.45;;;25.30;95.90;;;;;;5101211;28;20040;-71
2022/10/05 11:57:36;;;;;;;5.18;1.65;;;25.50;95.50;;;;;;5104621;28;20036;-71
2022/10/05 12:00:20;;;;;;;1.98;1.63;;;25.70;95.10;;;;;;5099947;28;20054;-71
2022/10/05 12:03:01;;;;;;;1.90;1.60;;;26.00;94.70;;;;;;5105961;28;20032;-70
2022/10/05 12:05:49;;;;;;;2.30;1.73;;;26.20;93.80;;;;;;5105117;28;20088;-71
2022/10/05 12:08:20;;;;;;;3.55;1.30;;;26.40;93.40;;;;;;5108835;28;20043;-70
2022/10/05 12:11:12;;;;;;;3.97;1.77;;;26.60;92.60;;;;;;5104788;28;20027;-71
2022/10/05 12:13:50;;;;;;;1.35;1.25;;;26.70;92.70;;;;;;5106681;27;20023;-70
2022/10/05 12:16:30;;;;;;;1.73;1.33;;;26.80;91.90;;;;;;5107828;28;20114;-69
2022/10/05 12:19:24;;;;;;;5.28;1.55;;;26.80;91.70;;;;;;5108532;28;20032;-69
2022/10/05 12:22:14;;;;;;;3.40;1.40;;;26.90;91.10;;;;;;5112091;27;20032;-67
2022/10/05 12:25:35;;;;;;;1.53;1.40;;;26.80;91.00;;;;;;5107704;28;20031;-69
2022/10/05 12:28:08;;;;;;;1.88;1.33;;;26.90;90.80;;;;;;5021355;28;20091;-71
2022/10/05 12:31:10;;;;;;;2.88;1.50;;;27.00;90.90;;;;;;5102080;28;20032;-69
2022/10/05 12:33:53;;;;;;;5.53;1.38;;;27.30;90.50;;;;;;5110562;27;20073;-71
2022/10/05 12:36:46;;;;;;;1.67;1.42;;;27.40;97.30;;;;;;5116384;27;20026;-70
2022/10/05 12:39:41;;;;;;;2.85;1.48;;;27.60;99.90;;;;;;5109239;28;20183;-69
2022/10/05 12:42:27;;;;;;;4.40;1.45;;;28.00;99.90;;;;;;5106944;28;20027;-70
2022/10/05 12:44:59;;;;;;;2.08;1.40;;;28.50;98.00;;;;;;5107695;28;20495;-70
2022/10/05 12:47:34;;;;;;;1.63;1.50;;;28.80;96.70;;;;;;5110553;27;20056;-71
2022/10/05 12:50:23;;;;;;;2.78;1.50;;;29.00;96.10;;;;;;5109641;28;20288;-72
2022/10/05 12:53:09;;;;;;;4.15;1.33;;;29.00;94.70;;;;;;5103750;28;20030;-70
2022/10/05 12:55:52;;;;;;;3.25;1.42;;;29.00;94.10;;;;;;5096284;28;20044;-69
2022/10/05 12:58:55;;;;;;;5.40;1.50;;;28.80;93.50;;;;;;5111283;28;20490;-71
2022/10/05 13:01:35;;;;;;;2.97;0.93;;;28.50;92.90;;;;;;5107630;28;20094;-70
2022/10/05 13:04:20;;;;;;;5.68;1.10;;;28.40;92.10;;;;;;5102980;28;20356;-70
2022/10/05 13:07:05;;;;;;;2.95;1.20;;;28.30;91.60;;;;;;5107078;28;20012;-70
2022/10/05 13:09:41;;;;;;;3.38;0.95;;;28.30;90.90;;;;;;5101475;28;20515;-69
2022/10/05 13:12:41;;;;;;;1.17;0.65;;;28.10;89.70;;;;;;5103964;28;20031;-69
2022/10/05 13:15:13;;;;;;;1.67;0.80;;;27.80;89.30;;;;;;5100803;28;20134;-69
2022/10/05 13:17:56;;;;;;;3.10;0.90;;;27.60;89.80;;;;;;5102307;28;20417;-70
2022/10/05 13:20:28;;;;;;;1.63;0.90;;;27.60;89.30;;;;;;5103364;28;20032;-69
2022/10/05 13:23:12;;;;;;;1.38;0.90;;;27.50;90.00;;;;;;5108182;28;20042;-69
2022/10/05 13:25:51;;;;;;;3.17;0.85;;;27.50;90.00;;;;;;5104297;28;20033;-70
2022/10/05 13:28:48;;;;;;;2.53;1.02;;;27.50;89.50;;;;;;5106282;28;20036;-69
2022/10/05 13:31:20;;;;;;;1.67;0.85;;;27.30;89.60;;;;;;5085793;28;20436;-71
2022/10/05 13:34:06;;;;;;;0.80;0.77;;;27.20;90.40;;;;;;5096891;28;20102;-72
2022/10/05 13:36:41;;;;;;;4.20;1.10;;;27.10;90.70;;;;;;5099402;28;20059;-71
2022/10/05 13:39:39;;;;;;;1.00;1.00;;;27.20;90.40;;;;;;5093816;28;20059;-70
2022/10/05 13:42:11;;;;;;;1.67;0.80;;;27.30;90.40;;;;;;5072426;28;20048;-70
2022/10/05 13:44:57;;;;;;;7.28;1.00;;;27.30;90.10;;;;;;5099860;28;20028;-69
2022/10/05 13:47:47;;;;;;;1.17;0.95;;;27.40;89.80;;;;;;5096410;28;20498;-69
2022/10/05 13:50:16;;;;;;;1.27;0.90;;;27.50;89.20;;;;;;5102355;28;20039;-70
2022/10/05 13:53:01;;;;;;;1.30;0.70;;;27.50;89.20;;;;;;5112569;28;20110;-70
2022/10/05 13:55:56;;;;;;;1.50;0.70;;;27.60;87.70;;;;;;5113400;28;20027;-71
2022/10/05 13:58:43;;;;;;;2.67;1.00;;;27.60;88.30;;;;;;5114877;28;20039;-71
2022/10/05 14:01:33;;;;;;;1.52;1.05;;;27.80;88.00;;;;;;5113162;28;20035;-71
2022/10/05 14:04:16;;;;;;;2.05;0.70;;;27.80;87.30;;;;;;5112029;28;20051;-72
2022/10/05 14:06:44;;;;;;;1.17;0.80;;;27.90;86.60;;;;;;5114421;28;20055;-69
2022/10/05 14:09:25;;;;;;;1.50;1.00;;;27.80;86.60;;;;;;5112897;28;20032;-69
2022/10/05 14:12:11;;;;;;;3.65;0.90;;;27.60;87.00;;;;;;5110144;28;20031;-69
2022/10/05 14:14:57;;;;;;;1.42;0.80;;;27.50;87.10;;;;;;5114233;28;20031;-69
2022/10/05 14:17:37;;;;;;;1.30;1.17;;;27.40;87.40;;;;;;5117903;27;20027;-70
2022/10/05 14:20:25;;;;;;;1.83;1.05;;;27.30;88.10;;;;;;5112314;28;20059;-70
2022/10/05 14:23:10;;;;;;;1.00;0.85;;;27.10;88.60;;;;;;5114107;27;20073;-69